PWSweather.com
Personal Weather Stations
Station Observations
WESTON01
WestonSuperMareGB BS22 8RT

WestonSuperMareGB BS22 8RT

Lat: 51.351508, Lon: -2.933373

Elevation: 15

Station Type: Fine Offset WH1080

http://www.westonweather.co.uk

High Low Average
Temperature 46.8°F8.2°C 27.6°F-2.4°C 39.3°F4.1°C
Dew Point 38.5°F3.6°C 20.4°F-6.4°C 31.1°F-0.5°C
Winds 24.1 mph 38.8 kmh Calm Calm 10.0 mph WSW16.1 kmh WSW
Wind Gusts 34.5 mph55.5 kmh -- 15.0 mph24.1 kmh
Humidity 87% 58% 73%
Pressure 29.74 in1007.1 mb 29.36 in994.2 mb -
Precipitation 0.13 in3.3 mm - -
Hour Temp Dew Point Humidity Winds Wind Gusts Pressure Precip Precip Rate Daily Precip Total
12:00 AM 36.6°F2.6°C 29.7°F-1.3°C 76% 10.9 mph SSW17.5 kmh SSW 14.3 mph23.0 kmh 29.65 in1004.1 mb 0.00 in0.0 mm 0.00 in0.0 mm 0.00 in0.0 mm
12:05 AM 36.6°F2.6°C 29.7°F-1.3°C 76% 12.1 mph SSW19.5 kmh SSW 14.6 mph23.5 kmh 29.65 in1004.1 mb 0.00 in0.0 mm 0.00 in0.0 mm 0.00 in0.0 mm
12:10 AM 36.8°F2.7°C 29.9°F-1.2°C 76% 13.4 mph S21.6 kmh S 17.6 mph28.3 kmh 29.65 in1004.1 mb 0.00 in0.0 mm 0.00 in0.0 mm 0.00 in0.0 mm
12:15 AM 37.0°F2.8°C 30.1°F-1.1°C 76% 13.5 mph S21.7 kmh S 19.0 mph30.6 kmh 29.65 in1004.1 mb 0.00 in0.0 mm 0.00 in0.0 mm 0.00 in0.0 mm
12:20 AM 37.1°F2.8°C 30.3°F-0.9°C 76% 13.2 mph S21.2 kmh S 19.0 mph30.6 kmh 29.65 in1004.1 mb 0.00 in0.0 mm 0.00 in0.0 mm 0.00 in0.0 mm
12:25 AM 37.3°F2.9°C 30.4°F-0.9°C 76% 12.5 mph S20.1 kmh S 19.0 mph30.6 kmh 29.65 in1004.1 mb 0.00 in0.0 mm 0.00 in0.0 mm 0.00 in0.0 mm
12:30 AM 37.5°F3.1°C 30.9°F-0.6°C 77% 10.8 mph S17.4 kmh S 14.6 mph23.5 kmh 29.65 in1004.1 mb 0.00 in0.0 mm 0.00 in0.0 mm 0.00 in0.0 mm
12:35 AM 37.5°F3.1°C 30.9°F-0.6°C 77% 8.6 mph S13.8 kmh S 13.7 mph22.0 kmh 29.65 in1004.1 mb 0.00 in0.0 mm 0.00 in0.0 mm 0.00 in0.0 mm
12:40 AM 37.5°F3.1°C 30.9°F-0.6°C 77% 10.2 mph SSW16.4 kmh SSW 21.1 mph34.0 kmh 29.62 in1003.0 mb 0.00 in0.0 mm 0.00 in0.0 mm 0.00 in0.0 mm
12:45 AM 37.8°F3.2°C 31.3°F-0.4°C 77% 11.3 mph SSW18.2 kmh SSW 21.1 mph34.0 kmh 29.62 in1003.0 mb 0.00 in0.0 mm 0.00 in0.0 mm 0.00 in0.0 mm
12:50 AM 38.0°F3.3°C 31.5°F-0.3°C 77% 11.0 mph S17.7 kmh S 14.6 mph23.5 kmh 29.62 in1003.0 mb 0.00 in0.0 mm 0.00 in0.0 mm 0.00 in0.0 mm
12:55 AM 38.4°F3.6°C 31.8°F-0.1°C 77% 12.7 mph S20.4 kmh S 21.1 mph34.0 kmh 29.62 in1003.0 mb 0.00 in0.0 mm 0.00 in0.0 mm 0.00 in0.0 mm
01:00 AM 38.6°F3.7°C 32.0°F0.0°C 77% 14.7 mph S23.7 kmh S 21.1 mph34.0 kmh 29.62 in1003.0 mb 0.00 in0.0 mm 0.00 in0.0 mm 0.00 in0.0 mm
01:05 AM 38.8°F3.8°C 32.2°F0.1°C 77% 14.8 mph S23.8 kmh S 19.3 mph31.1 kmh 29.62 in1003.0 mb 0.00 in0.0 mm 0.00 in0.0 mm 0.00 in0.0 mm
01:10 AM 38.8°F3.8°C 32.2°F0.1°C 77% 13.4 mph S21.6 kmh S 19.3 mph31.1 kmh 29.62 in1003.0 mb 0.00 in0.0 mm 0.00 in0.0 mm 0.00 in0.0 mm
01:15 AM 38.9°F3.8°C 32.0°F0.0°C 76% 14.2 mph SSW22.9 kmh SSW 19.6 mph31.5 kmh 29.62 in1003.0 mb 0.00 in0.0 mm 0.00 in0.0 mm 0.00 in0.0 mm
01:20 AM 39.1°F3.9°C 32.5°F0.3°C 77% 15.8 mph SSW25.4 kmh SSW 19.6 mph31.5 kmh 29.62 in1003.0 mb 0.00 in0.0 mm 0.00 in0.0 mm 0.00 in0.0 mm
01:25 AM 39.1°F3.9°C 32.5°F0.3°C 77% 16.5 mph SSW26.6 kmh SSW 23.5 mph37.8 kmh 29.59 in1002.0 mb 0.00 in0.0 mm 0.00 in0.0 mm 0.00 in0.0 mm
01:30 AM 39.1°F3.9°C 32.5°F0.3°C 77% 16.4 mph SSW26.4 kmh SSW 23.5 mph37.8 kmh 29.59 in1002.0 mb 0.00 in0.0 mm 0.00 in0.0 mm 0.00 in0.0 mm
01:35 AM 39.1°F3.9°C 32.5°F0.3°C 77% 16.1 mph SSW25.9 kmh SSW 22.9 mph36.9 kmh 29.59 in1002.0 mb 0.00 in0.0 mm 0.00 in0.0 mm 0.00 in0.0 mm
01:40 AM 39.1°F3.9°C 32.5°F0.3°C 77% 18.9 mph S30.4 kmh S 27.1 mph43.6 kmh 29.59 in1002.0 mb 0.00 in0.0 mm 0.00 in0.0 mm 0.00 in0.0 mm
01:45 AM 38.9°F3.8°C 32.3°F0.2°C 77% 16.1 mph SSW25.9 kmh SSW 27.1 mph43.6 kmh 29.59 in1002.0 mb 0.00 in0.0 mm 0.00 in0.0 mm 0.00 in0.0 mm
01:50 AM 38.8°F3.8°C 32.2°F0.1°C 77% 13.7 mph S22.0 kmh S 19.0 mph30.6 kmh 29.59 in1002.0 mb 0.00 in0.0 mm 0.00 in0.0 mm 0.00 in0.0 mm
01:55 AM 38.9°F3.8°C 32.3°F0.2°C 77% 15.1 mph S24.3 kmh S 19.0 mph30.6 kmh 29.59 in1002.0 mb 0.00 in0.0 mm 0.00 in0.0 mm 0.00 in0.0 mm
02:00 AM 39.1°F3.9°C 32.5°F0.3°C 77% 14.0 mph S22.5 kmh S 19.3 mph31.1 kmh 29.59 in1002.0 mb 0.00 in0.0 mm 0.00 in0.0 mm 0.00 in0.0 mm
02:05 AM 38.9°F3.8°C 32.3°F0.2°C 77% 12.7 mph S20.4 kmh S 19.3 mph31.1 kmh 29.59 in1002.0 mb 0.00 in0.0 mm 0.00 in0.0 mm 0.00 in0.0 mm
02:10 AM 38.9°F3.8°C 32.0°F0.0°C 76% 10.3 mph S16.6 kmh S 18.4 mph29.6 kmh 29.56 in1001.0 mb 0.00 in0.0 mm 0.00 in0.0 mm 0.00 in0.0 mm
02:15 AM 39.1°F3.9°C 32.5°F0.3°C 77% 10.2 mph SSW16.4 kmh SSW 14.3 mph23.0 kmh 29.56 in1001.0 mb 0.00 in0.0 mm 0.00 in0.0 mm 0.00 in0.0 mm
02:20 AM 39.1°F3.9°C 32.5°F0.3°C 77% 10.8 mph SSW17.4 kmh SSW 14.3 mph23.0 kmh 29.56 in1001.0 mb 0.00 in0.0 mm 0.00 in0.0 mm 0.00 in0.0 mm
02:25 AM 39.1°F3.9°C 32.5°F0.3°C 77% 10.9 mph S17.5 kmh S 13.7 mph22.0 kmh 29.56 in1001.0 mb 0.00 in0.0 mm 0.00 in0.0 mm 0.00 in0.0 mm
02:30 AM 39.3°F4.1°C 32.7°F0.4°C 77% 11.2 mph S18.0 kmh S 17.6 mph28.3 kmh 29.56 in1001.0 mb 0.00 in0.0 mm 0.00 in0.0 mm 0.00 in0.0 mm
02:35 AM 39.5°F4.2°C 32.9°F0.5°C 77% 12.0 mph S19.3 kmh S 17.6 mph28.3 kmh 29.56 in1001.0 mb 0.00 in0.0 mm 0.00 in0.0 mm 0.00 in0.0 mm
02:40 AM 39.8°F4.3°C 33.2°F0.7°C 77% 11.9 mph S19.2 kmh S 17.0 mph27.4 kmh 29.56 in1001.0 mb 0.00 in0.0 mm 0.00 in0.0 mm 0.00 in0.0 mm
02:45 AM 40.0°F4.4°C 33.4°F0.8°C 77% 12.0 mph SSW19.3 kmh SSW 18.1 mph29.1 kmh 29.56 in1001.0 mb 0.00 in0.0 mm 0.00 in0.0 mm 0.00 in0.0 mm
02:50 AM 40.4°F4.7°C 33.7°F0.9°C 77% 13.1 mph SSW21.1 kmh SSW 18.1 mph29.1 kmh 29.56 in1001.0 mb 0.00 in0.0 mm 0.00 in0.0 mm 0.00 in0.0 mm
02:55 AM 40.7°F4.8°C 33.8°F1.0°C 76% 15.9 mph S25.6 kmh S 18.7 mph30.1 kmh 29.53 in1000.0 mb 0.00 in0.0 mm 0.00 in0.0 mm 0.00 in0.0 mm
03:00 AM 40.9°F4.9°C 33.9°F1.1°C 76% 18.1 mph S29.1 kmh S 20.8 mph33.5 kmh 29.53 in1000.0 mb 0.00 in0.0 mm 0.00 in0.0 mm 0.00 in0.0 mm
03:05 AM 41.1°F5.1°C 34.1°F1.2°C 76% 15.8 mph SSW25.4 kmh SSW 20.8 mph33.5 kmh 29.53 in1000.0 mb 0.00 in0.0 mm 0.00 in0.0 mm 0.00 in0.0 mm
03:10 AM 41.3°F5.2°C 34.3°F1.3°C 76% 15.9 mph SSW25.6 kmh SSW 26.5 mph42.6 kmh 29.53 in1000.0 mb 0.00 in0.0 mm 0.00 in0.0 mm 0.00 in0.0 mm
03:15 AM 41.5°F5.3°C 34.1°F1.2°C 75% 16.5 mph S26.6 kmh S 26.5 mph42.6 kmh 29.53 in1000.0 mb 0.00 in0.0 mm 0.00 in0.0 mm 0.00 in0.0 mm
03:20 AM 41.6°F5.3°C 34.3°F1.3°C 75% 15.6 mph S25.1 kmh S 23.5 mph37.8 kmh 29.53 in1000.0 mb 0.00 in0.0 mm 0.00 in0.0 mm 0.00 in0.0 mm
03:25 AM 41.6°F5.3°C 34.0°F1.1°C 74% 17.3 mph S27.8 kmh S 23.8 mph38.3 kmh 29.50 in999.0 mb 0.00 in0.0 mm 0.00 in0.0 mm 0.00 in0.0 mm
03:30 AM 41.8°F5.4°C 34.1°F1.2°C 74% 18.2 mph S29.3 kmh S 23.8 mph38.3 kmh 29.50 in999.0 mb 0.00 in0.0 mm 0.00 in0.0 mm 0.00 in0.0 mm
03:35 AM 42.0°F5.6°C 34.3°F1.3°C 74% 16.8 mph S27.0 kmh S 24.7 mph39.8 kmh 29.50 in999.0 mb 0.00 in0.0 mm 0.00 in0.0 mm 0.00 in0.0 mm
03:40 AM 42.0°F5.6°C 34.3°F1.3°C 74% 16.9 mph SSW27.2 kmh SSW 24.7 mph39.8 kmh 29.50 in999.0 mb 0.00 in0.0 mm 0.00 in0.0 mm 0.00 in0.0 mm
03:45 AM 42.0°F5.6°C 34.3°F1.3°C 74% 16.9 mph SSW27.2 kmh SSW 24.7 mph39.8 kmh 29.50 in999.0 mb 0.00 in0.0 mm 0.00 in0.0 mm 0.00 in0.0 mm
03:50 AM 42.0°F5.6°C 34.0°F1.1°C 73% 16.0 mph S25.7 kmh S 22.6 mph36.4 kmh 29.50 in999.0 mb 0.00 in0.0 mm 0.00 in0.0 mm 0.00 in0.0 mm
03:55 AM 42.0°F5.6°C 34.0°F1.1°C 73% 17.1 mph S27.5 kmh S 30.9 mph49.7 kmh 29.47 in998.0 mb 0.00 in0.0 mm 0.00 in0.0 mm 0.00 in0.0 mm
04:00 AM 41.8°F5.4°C 33.8°F1.0°C 73% 15.6 mph S25.1 kmh S 30.9 mph49.7 kmh 29.47 in998.0 mb 0.00 in0.0 mm 0.00 in0.0 mm 0.00 in0.0 mm
04:05 AM 41.8°F5.4°C 33.8°F1.0°C 73% 13.1 mph SSW21.1 kmh SSW 19.0 mph30.6 kmh 29.47 in998.0 mb 0.00 in0.0 mm 0.00 in0.0 mm 0.00 in0.0 mm
04:10 AM 41.8°F5.4°C 33.8°F1.0°C 73% 14.0 mph SSW22.5 kmh SSW 18.4 mph29.6 kmh 29.47 in998.0 mb 0.00 in0.0 mm 0.00 in0.0 mm 0.00 in0.0 mm
04:15 AM 41.8°F5.4°C 33.8°F1.0°C 73% 14.1 mph S22.7 kmh S 18.4 mph29.6 kmh 29.47 in998.0 mb 0.00 in0.0 mm 0.00 in0.0 mm 0.00 in0.0 mm
04:20 AM 42.0°F5.6°C 34.0°F1.1°C 73% 14.7 mph SSW23.7 kmh SSW 26.5 mph42.6 kmh 29.47 in998.0 mb 0.00 in0.0 mm 0.00 in0.0 mm 0.00 in0.0 mm
04:25 AM 42.0°F5.6°C 34.0°F1.1°C 73% 16.0 mph S25.7 kmh S 26.5 mph42.6 kmh 29.47 in998.0 mb 0.00 in0.0 mm 0.00 in0.0 mm 0.00 in0.0 mm
04:30 AM 42.2°F5.7°C 34.1°F1.2°C 73% 16.0 mph S25.7 kmh S 21.4 mph34.4 kmh 29.47 in998.0 mb 0.00 in0.0 mm 0.00 in0.0 mm 0.00 in0.0 mm
04:35 AM 42.2°F5.7°C 34.1°F1.2°C 73% 17.9 mph S28.8 kmh S 31.8 mph51.2 kmh 29.47 in998.0 mb 0.00 in0.0 mm 0.00 in0.0 mm 0.00 in0.0 mm
04:40 AM 42.2°F5.7°C 34.1°F1.2°C 73% 18.1 mph S29.1 kmh S 31.8 mph51.2 kmh 29.45 in997.3 mb 0.00 in0.0 mm 0.00 in0.0 mm 0.00 in0.0 mm
04:45 AM 42.2°F5.7°C 34.1°F1.2°C 73% 20.1 mph S32.3 kmh S 34.2 mph55.0 kmh 29.45 in997.3 mb 0.00 in0.0 mm 0.00 in0.0 mm 0.00 in0.0 mm
04:50 AM 42.2°F5.7°C 34.1°F1.2°C 73% 17.5 mph S28.2 kmh S 34.2 mph55.0 kmh 29.45 in997.3 mb 0.00 in0.0 mm 0.00 in0.0 mm 0.00 in0.0 mm
04:55 AM 42.0°F5.6°C 34.0°F1.1°C 73% 15.1 mph SSW24.3 kmh SSW 23.5 mph37.8 kmh 29.45 in997.3 mb 0.00 in0.0 mm 0.00 in0.0 mm 0.00 in0.0 mm
05:00 AM 42.0°F5.6°C 34.0°F1.1°C 73% 18.0 mph SSW29.0 kmh SSW 24.1 mph38.8 kmh 29.45 in997.3 mb 0.00 in0.0 mm 0.00 in0.0 mm 0.00 in0.0 mm
05:05 AM 42.0°F5.6°C 34.0°F1.1°C 73% 17.6 mph SSW28.3 kmh SSW 24.1 mph38.8 kmh 29.45 in997.3 mb 0.00 in0.0 mm 0.00 in0.0 mm 0.00 in0.0 mm
05:10 AM 41.8°F5.4°C 33.8°F1.0°C 73% 18.2 mph S29.3 kmh S 29.2 mph47.0 kmh 29.41 in995.9 mb 0.00 in0.0 mm 0.00 in0.0 mm 0.00 in0.0 mm
05:15 AM 41.8°F5.4°C 33.8°F1.0°C 73% 21.6 mph S34.8 kmh S 31.5 mph50.7 kmh 29.41 in995.9 mb 0.00 in0.0 mm 0.00 in0.0 mm 0.00 in0.0 mm
05:20 AM 41.6°F5.3°C 33.6°F0.9°C 73% 18.9 mph S30.4 kmh S 31.5 mph50.7 kmh 29.41 in995.9 mb 0.00 in0.0 mm 0.00 in0.0 mm 0.00 in0.0 mm
05:25 AM 41.5°F5.3°C 33.8°F1.0°C 74% 17.2 mph SSW27.7 kmh SSW 23.5 mph37.8 kmh 29.41 in995.9 mb 0.00 in0.0 mm 0.00 in0.0 mm 0.00 in0.0 mm
05:30 AM 41.3°F5.2°C 33.6°F0.9°C 74% 17.5 mph S28.2 kmh S 23.5 mph37.8 kmh 29.41 in995.9 mb 0.00 in0.0 mm 0.00 in0.0 mm 0.00 in0.0 mm
05:35 AM 41.1°F5.1°C 33.8°F1.0°C 75% 16.7 mph S26.9 kmh S 22.0 mph35.4 kmh 29.41 in995.9 mb 0.00 in0.0 mm 0.00 in0.0 mm 0.00 in0.0 mm
05:40 AM 40.9°F4.9°C 33.9°F1.1°C 76% 17.6 mph S28.3 kmh S 23.5 mph37.8 kmh 29.41 in995.9 mb 0.00 in0.0 mm 0.00 in0.0 mm 0.00 in0.0 mm
05:45 AM 40.5°F4.7°C 33.6°F0.9°C 76% 19.2 mph S30.9 kmh S 26.5 mph42.6 kmh 29.41 in995.9 mb 0.00 in0.0 mm 0.00 in0.0 mm 0.00 in0.0 mm
05:50 AM 40.5°F4.7°C 33.6°F0.9°C 76% 21.3 mph S34.3 kmh S 31.2 mph50.2 kmh 29.41 in995.9 mb 0.00 in0.0 mm 0.00 in0.0 mm 0.00 in0.0 mm
05:55 AM 40.4°F4.7°C 33.7°F0.9°C 77% 20.2 mph S32.5 kmh S 31.2 mph50.2 kmh 29.41 in995.9 mb 0.00 in0.0 mm 0.00 in0.0 mm 0.00 in0.0 mm
06:00 AM 40.4°F4.7°C 33.7°F0.9°C 77% 19.9 mph SSW32.0 kmh SSW 23.2 mph37.3 kmh 29.41 in995.9 mb 0.00 in0.0 mm 0.00 in0.0 mm 0.00 in0.0 mm
06:05 AM 40.2°F4.6°C 33.9°F1.1°C 78% 22.8 mph S36.7 kmh S 34.5 mph55.5 kmh 29.41 in995.9 mb 0.00 in0.0 mm 0.00 in0.0 mm 0.00 in0.0 mm
06:10 AM 40.0°F4.4°C 33.7°F0.9°C 78% 24.1 mph SSW38.8 kmh SSW 34.5 mph55.5 kmh 29.39 in995.3 mb 0.00 in0.0 mm 0.00 in0.0 mm 0.00 in0.0 mm
06:15 AM 39.8°F4.3°C 33.5°F0.8°C 78% 22.2 mph SW35.7 kmh SW 31.5 mph50.7 kmh 29.39 in995.3 mb 0.00 in0.0 mm 0.00 in0.0 mm 0.00 in0.0 mm
06:20 AM 39.7°F4.3°C 33.7°F0.9°C 79% 17.0 mph SSW27.4 kmh SSW 29.8 mph48.0 kmh 29.39 in995.3 mb 0.00 in0.0 mm 0.00 in0.0 mm 0.00 in0.0 mm
06:25 AM 39.7°F4.3°C 33.7°F0.9°C 79% 16.4 mph S26.4 kmh S 26.5 mph42.6 kmh 29.39 in995.3 mb 0.00 in0.0 mm 0.00 in0.0 mm 0.00 in0.0 mm
06:30 AM 39.7°F4.3°C 33.7°F0.9°C 79% 17.5 mph S28.2 kmh S 26.5 mph42.6 kmh 29.39 in995.3 mb 0.00 in0.0 mm 0.00 in0.0 mm 0.00 in0.0 mm
06:35 AM 39.5°F4.2°C 33.8°F1.0°C 80% 20.2 mph S32.5 kmh S 28.6 mph46.0 kmh 29.39 in995.3 mb 0.00 in0.0 mm 0.00 in0.0 mm 0.00 in0.0 mm
06:40 AM 39.3°F4.1°C 33.6°F0.9°C 80% 21.0 mph S33.8 kmh S 28.6 mph46.0 kmh 29.39 in995.3 mb 0.00 in0.0 mm 0.00 in0.0 mm 0.00 in0.0 mm
06:45 AM 39.3°F4.1°C 33.6°F0.9°C 80% 17.0 mph S27.4 kmh S 22.3 mph35.9 kmh 29.39 in995.3 mb 0.00 in0.0 mm 0.00 in0.0 mm 0.00 in0.0 mm
06:50 AM 39.3°F4.1°C 33.9°F1.1°C 81% 15.9 mph S25.6 kmh S 26.5 mph42.6 kmh 29.39 in995.3 mb 0.00 in0.0 mm 0.00 in0.0 mm 0.00 in0.0 mm
06:55 AM 39.3°F4.1°C 33.9°F1.1°C 81% 15.8 mph S25.4 kmh S 26.5 mph42.6 kmh 29.36 in994.2 mb 0.00 in0.0 mm 0.00 in0.0 mm 0.00 in0.0 mm
07:00 AM 39.1°F3.9°C 33.8°F1.0°C 81% 16.0 mph S25.7 kmh S 25.9 mph41.7 kmh 29.36 in994.2 mb 0.00 in0.0 mm 0.00 in0.0 mm 0.00 in0.0 mm
07:05 AM 39.1°F3.9°C 33.8°F1.0°C 81% 18.8 mph S30.3 kmh S 31.8 mph51.2 kmh 29.36 in994.2 mb 0.00 in0.0 mm 0.00 in0.0 mm 0.00 in0.0 mm
07:10 AM 39.1°F3.9°C 33.8°F1.0°C 81% 18.1 mph S29.1 kmh S 31.8 mph51.2 kmh 29.36 in994.2 mb 0.00 in0.0 mm 0.00 in0.0 mm 0.00 in0.0 mm
07:15 AM 39.1°F3.9°C 33.8°F1.0°C 81% 15.8 mph S25.4 kmh S 25.6 mph41.2 kmh 29.36 in994.2 mb 0.00 in0.0 mm 0.00 in0.0 mm 0.00 in0.0 mm
07:20 AM 39.1°F3.9°C 33.8°F1.0°C 81% 16.6 mph SSW26.7 kmh SSW 22.9 mph36.9 kmh 29.36 in994.2 mb 0.00 in0.0 mm 0.00 in0.0 mm 0.00 in0.0 mm
07:25 AM 39.1°F3.9°C 34.1°F1.2°C 82% 17.2 mph S27.7 kmh S 27.1 mph43.6 kmh 29.36 in994.2 mb 0.00 in0.0 mm 0.00 in0.0 mm 0.00 in0.0 mm
07:30 AM 39.1°F3.9°C 34.1°F1.2°C 82% 17.1 mph S27.5 kmh S 27.1 mph43.6 kmh 29.36 in994.2 mb 0.00 in0.0 mm 0.00 in0.0 mm 0.00 in0.0 mm
07:35 AM 39.1°F3.9°C 34.1°F1.2°C 82% 15.4 mph S24.8 kmh S 22.6 mph36.4 kmh 29.36 in994.2 mb 0.00 in0.0 mm 0.00 in0.0 mm 0.00 in0.0 mm
07:40 AM 39.3°F4.1°C 34.6°F1.4°C 83% 16.6 mph S26.7 kmh S 23.0 mph37.0 kmh 29.36 in994.2 mb 0.00 in0.0 mm 0.00 in0.0 mm 0.00 in0.0 mm
07:45 AM 39.3°F4.1°C 34.6°F1.4°C 83% 16.1 mph SSW25.9 kmh SSW 23.0 mph37.0 kmh 29.36 in994.2 mb 0.00 in0.0 mm 0.00 in0.0 mm 0.00 in0.0 mm
07:50 AM 39.7°F4.3°C 35.2°F1.8°C 84% 18.1 mph SSW29.1 kmh SSW 26.2 mph42.2 kmh 29.36 in994.2 mb 0.00 in0.0 mm 0.00 in0.0 mm 0.00 in0.0 mm
07:55 AM 39.8°F4.3°C 35.4°F1.9°C 84% 17.9 mph SSW28.8 kmh SSW 26.2 mph42.2 kmh 29.36 in994.2 mb 0.00 in0.0 mm 0.00 in0.0 mm 0.00 in0.0 mm
08:00 AM 40.0°F4.4°C 35.6°F2.0°C 84% 19.0 mph SSW30.6 kmh SSW 25.6 mph41.2 kmh 29.36 in994.2 mb 0.00 in0.0 mm 0.00 in0.0 mm 0.00 in0.0 mm
08:05 AM 40.0°F4.4°C 35.6°F2.0°C 84% 16.9 mph SSW27.2 kmh SSW 25.6 mph41.2 kmh 29.36 in994.2 mb 0.00 in0.0 mm 0.00 in0.0 mm 0.00 in0.0 mm
08:10 AM 40.2°F4.6°C 36.0°F2.2°C 85% 13.8 mph SSW22.2 kmh SSW 22.6 mph36.4 kmh 29.36 in994.2 mb 0.00 in0.0 mm 0.00 in0.0 mm 0.00 in0.0 mm
08:15 AM 40.2°F4.6°C 36.0°F2.2°C 85% 13.6 mph SSW21.9 kmh SSW 22.6 mph36.4 kmh 29.36 in994.2 mb 0.04 in1.0 mm 0.48 in12.2 mm 0.04 in1.0 mm
08:20 AM 40.4°F4.7°C 36.2°F2.3°C 85% 13.2 mph S21.2 kmh S 17.6 mph28.3 kmh 29.36 in994.2 mb 0.04 in1.0 mm 0.00 in0.0 mm 0.04 in1.0 mm
08:25 AM 40.4°F4.7°C 36.2°F2.3°C 85% 13.4 mph S21.6 kmh S 17.6 mph28.3 kmh 29.39 in995.3 mb 0.04 in1.0 mm 0.00 in0.0 mm 0.04 in1.0 mm
08:30 AM 40.4°F4.7°C 36.2°F2.3°C 85% 14.0 mph SSW22.5 kmh SSW 19.3 mph31.1 kmh 29.39 in995.3 mb 0.04 in1.0 mm 0.00 in0.0 mm 0.04 in1.0 mm
08:35 AM 40.0°F4.4°C 35.9°F2.2°C 85% 11.5 mph SSW18.5 kmh SSW 19.3 mph31.1 kmh 29.39 in995.3 mb 0.04 in1.0 mm 0.00 in0.0 mm 0.04 in1.0 mm
08:40 AM 40.0°F4.4°C 35.9°F2.2°C 85% 12.7 mph SSW20.4 kmh SSW 22.9 mph36.9 kmh 29.39 in995.3 mb 0.04 in1.0 mm 0.00 in0.0 mm 0.04 in1.0 mm
08:45 AM 39.8°F4.3°C 35.7°F2.1°C 85% 16.1 mph SSW25.9 kmh SSW 23.2 mph37.3 kmh 29.39 in995.3 mb 0.04 in1.0 mm 0.00 in0.0 mm 0.04 in1.0 mm
08:50 AM 39.7°F4.3°C 35.5°F1.9°C 85% 13.1 mph SSW21.1 kmh SSW 23.2 mph37.3 kmh 29.39 in995.3 mb 0.08 in2.0 mm 0.48 in12.2 mm 0.08 in2.0 mm
08:55 AM 39.5°F4.2°C 35.3°F1.8°C 85% 11.4 mph SSW18.3 kmh SSW 17.6 mph28.3 kmh 29.39 in995.3 mb 0.08 in2.0 mm 0.00 in0.0 mm 0.08 in2.0 mm
09:00 AM 39.3°F4.1°C 35.2°F1.8°C 85% 11.0 mph S17.7 kmh S 17.6 mph28.3 kmh 29.39 in995.3 mb 0.08 in2.0 mm 0.00 in0.0 mm 0.08 in2.0 mm
09:05 AM 39.1°F3.9°C 35.0°F1.7°C 85% 9.8 mph S15.8 kmh S 14.3 mph23.0 kmh 29.39 in995.3 mb 0.08 in2.0 mm 0.00 in0.0 mm 0.08 in2.0 mm
09:10 AM 38.6°F3.7°C 34.5°F1.4°C 85% 10.8 mph SSW17.4 kmh SSW 18.4 mph29.6 kmh 29.39 in995.3 mb 0.08 in2.0 mm 0.00 in0.0 mm 0.08 in2.0 mm
09:15 AM 38.4°F3.6°C 34.3°F1.3°C 85% 9.5 mph SSW15.3 kmh SSW 18.4 mph29.6 kmh 29.39 in995.3 mb 0.04 in1.0 mm 0.00 in0.0 mm 0.08 in2.0 mm
09:20 AM 38.2°F3.4°C 34.1°F1.2°C 85% 8.2 mph S13.2 kmh S 12.2 mph19.6 kmh 29.39 in995.3 mb 0.04 in1.0 mm 0.00 in0.0 mm 0.08 in2.0 mm
09:25 AM 38.0°F3.3°C 33.9°F1.1°C 85% 8.7 mph S14.0 kmh S 12.2 mph19.6 kmh 29.36 in994.2 mb 0.04 in1.0 mm 0.00 in0.0 mm 0.08 in2.0 mm
09:30 AM 38.0°F3.3°C 33.9°F1.1°C 85% 7.4 mph S11.9 kmh S 12.2 mph19.6 kmh 29.36 in994.2 mb 0.04 in1.0 mm 0.00 in0.0 mm 0.08 in2.0 mm
09:35 AM 38.0°F3.3°C 33.9°F1.1°C 85% 6.2 mph S10.0 kmh S 10.7 mph17.2 kmh 29.36 in994.2 mb 0.04 in1.0 mm 0.00 in0.0 mm 0.08 in2.0 mm
09:40 AM 38.0°F3.3°C 33.9°F1.1°C 85% 7.5 mph SSW12.1 kmh SSW 10.7 mph17.2 kmh 29.36 in994.2 mb 0.04 in1.0 mm 0.00 in0.0 mm 0.08 in2.0 mm
09:45 AM 38.0°F3.3°C 34.2°F1.2°C 86% 7.3 mph SSW11.7 kmh SSW 10.7 mph17.2 kmh 29.36 in994.2 mb 0.04 in1.0 mm 0.00 in0.0 mm 0.08 in2.0 mm
09:50 AM 38.0°F3.3°C 34.2°F1.2°C 86% 6.3 mph S10.1 kmh S 10.7 mph17.2 kmh 29.36 in994.2 mb 0.00 in0.0 mm 0.00 in0.0 mm 0.08 in2.0 mm
09:55 AM 38.2°F3.4°C 34.4°F1.3°C 86% 4.9 mph S7.9 kmh S 7.7 mph12.4 kmh 29.36 in994.2 mb 0.00 in0.0 mm 0.00 in0.0 mm 0.08 in2.0 mm
10:00 AM 38.4°F3.6°C 34.6°F1.4°C 86% 3.4 mph S5.5 kmh S 7.4 mph11.9 kmh 29.36 in994.2 mb 0.00 in0.0 mm 0.00 in0.0 mm 0.08 in2.0 mm
10:05 AM 38.6°F3.7°C 35.0°F1.7°C 87% 3.1 mph SSW5.0 kmh SSW 5.4 mph8.7 kmh 29.36 in994.2 mb 0.00 in0.0 mm 0.00 in0.0 mm 0.08 in2.0 mm
10:10 AM 38.8°F3.8°C 35.2°F1.8°C 87% 3.0 mph SW4.8 kmh SW 5.1 mph8.2 kmh 29.39 in995.3 mb 0.00 in0.0 mm 0.00 in0.0 mm 0.08 in2.0 mm
10:15 AM 38.8°F3.8°C 35.2°F1.8°C 87% 1.8 mph WNW2.9 kmh WNW 5.1 mph8.2 kmh 29.39 in995.3 mb 0.00 in0.0 mm 0.00 in0.0 mm 0.08 in2.0 mm
10:20 AM 39.1°F3.9°C 35.6°F2.0°C 87% 1.6 mph NW2.6 kmh NW 5.7 mph9.2 kmh 29.39 in995.3 mb 0.00 in0.0 mm 0.00 in0.0 mm 0.08 in2.0 mm
10:25 AM 39.3°F4.1°C 35.7°F2.1°C 87% 3.6 mph WNW5.8 kmh WNW 5.7 mph9.2 kmh 29.39 in995.3 mb 0.00 in0.0 mm 0.00 in0.0 mm 0.08 in2.0 mm
10:30 AM 39.5°F4.2°C 35.9°F2.2°C 87% 6.2 mph W10.0 kmh W 10.7 mph17.2 kmh 29.39 in995.3 mb 0.00 in0.0 mm 0.00 in0.0 mm 0.08 in2.0 mm
10:35 AM 39.5°F4.2°C 35.9°F2.2°C 87% 8.3 mph NW13.4 kmh NW 11.6 mph18.7 kmh 29.39 in995.3 mb 0.00 in0.0 mm 0.00 in0.0 mm 0.08 in2.0 mm
10:40 AM 39.5°F4.2°C 35.9°F2.2°C 87% 7.6 mph NW12.2 kmh NW 11.6 mph18.7 kmh 29.41 in995.9 mb 0.00 in0.0 mm 0.00 in0.0 mm 0.08 in2.0 mm
10:45 AM 39.8°F4.3°C 36.3°F2.4°C 87% 7.0 mph NW11.3 kmh NW 11.3 mph18.2 kmh 29.41 in995.9 mb 0.00 in0.0 mm 0.00 in0.0 mm 0.08 in2.0 mm
10:50 AM 39.8°F4.3°C 36.3°F2.4°C 87% 8.0 mph NW12.9 kmh NW 14.0 mph22.5 kmh 29.41 in995.9 mb 0.00 in0.0 mm 0.00 in0.0 mm 0.08 in2.0 mm
10:55 AM 40.0°F4.4°C 36.5°F2.5°C 87% 8.5 mph NW13.7 kmh NW 14.0 mph22.5 kmh 29.41 in995.9 mb 0.00 in0.0 mm 0.00 in0.0 mm 0.08 in2.0 mm
11:00 AM 40.2°F4.6°C 36.6°F2.6°C 87% 7.0 mph NW11.3 kmh NW 11.3 mph18.2 kmh 29.41 in995.9 mb 0.00 in0.0 mm 0.00 in0.0 mm 0.08 in2.0 mm
11:05 AM 40.4°F4.7°C 36.8°F2.7°C 87% 6.0 mph NW9.7 kmh NW 9.5 mph15.3 kmh 29.41 in995.9 mb 0.00 in0.0 mm 0.00 in0.0 mm 0.08 in2.0 mm
11:10 AM 40.5°F4.7°C 37.0°F2.8°C 87% 6.0 mph WNW9.7 kmh WNW 8.3 mph13.4 kmh 29.41 in995.9 mb 0.00 in0.0 mm 0.00 in0.0 mm 0.08 in2.0 mm
11:25 AM 40.9°F4.9°C 37.0°F2.8°C 86% 10.5 mph WSW16.9 kmh WSW 18.1 mph29.1 kmh 29.41 in995.9 mb 0.00 in0.0 mm 0.00 in0.0 mm 0.08 in2.0 mm
11:30 AM 41.1°F5.1°C 37.2°F2.9°C 86% 8.2 mph WNW13.2 kmh WNW 12.2 mph19.6 kmh 29.41 in995.9 mb 0.00 in0.0 mm 0.00 in0.0 mm 0.08 in2.0 mm
11:35 AM 41.1°F5.1°C 37.2°F2.9°C 86% 9.4 mph WNW15.1 kmh WNW 14.0 mph22.5 kmh 29.41 in995.9 mb 0.00 in0.0 mm 0.00 in0.0 mm 0.08 in2.0 mm
11:55 AM 42.3°F5.7°C 38.5°F3.6°C 86% 7.6 mph WNW12.2 kmh WNW 11.9 mph19.2 kmh 29.45 in997.3 mb 0.00 in0.0 mm 0.00 in0.0 mm 0.08 in2.0 mm
12:00 PM 42.3°F5.7°C 38.5°F3.6°C 86% 7.5 mph W12.1 kmh W 11.9 mph19.2 kmh 29.45 in997.3 mb 0.00 in0.0 mm 0.00 in0.0 mm 0.08 in2.0 mm
12:10 PM 42.7°F5.9°C 38.5°F3.6°C 85% 9.1 mph W14.6 kmh W 14.6 mph23.5 kmh 29.45 in997.3 mb 0.00 in0.0 mm 0.00 in0.0 mm 0.08 in2.0 mm
12:15 PM 42.5°F5.8°C 38.3°F3.5°C 85% 9.1 mph WNW14.6 kmh WNW 14.6 mph23.5 kmh 29.45 in997.3 mb 0.00 in0.0 mm 0.00 in0.0 mm 0.08 in2.0 mm
12:20 PM 42.5°F5.8°C 38.0°F3.3°C 84% 8.4 mph NW13.5 kmh NW 14.6 mph23.5 kmh 29.45 in997.3 mb 0.00 in0.0 mm 0.00 in0.0 mm 0.08 in2.0 mm
12:25 PM 42.5°F5.8°C 38.0°F3.3°C 84% 7.7 mph NW12.4 kmh NW 17.0 mph27.4 kmh 29.47 in998.0 mb 0.00 in0.0 mm 0.00 in0.0 mm 0.08 in2.0 mm
12:30 PM 42.7°F5.9°C 38.2°F3.4°C 84% 8.5 mph NW13.7 kmh NW 17.0 mph27.4 kmh 29.47 in998.0 mb 0.05 in1.3 mm 0.60 in15.2 mm 0.13 in3.3 mm
12:35 PM 42.9°F6.1°C 38.4°F3.6°C 84% 6.9 mph NW11.1 kmh NW 9.5 mph15.3 kmh 29.47 in998.0 mb 0.05 in1.3 mm 0.00 in0.0 mm 0.13 in3.3 mm
12:40 PM 42.9°F6.1°C 38.1°F3.4°C 83% 5.8 mph NW9.3 kmh NW 10.4 mph16.7 kmh 29.47 in998.0 mb 0.05 in1.3 mm 0.00 in0.0 mm 0.13 in3.3 mm
12:45 PM 43.1°F6.2°C 37.9°F3.3°C 82% 7.3 mph NNW11.7 kmh NNW 10.4 mph16.7 kmh 29.47 in998.0 mb 0.05 in1.3 mm 0.00 in0.0 mm 0.13 in3.3 mm
12:50 PM 43.6°F6.4°C 38.2°F3.4°C 81% 12.1 mph NNW19.5 kmh NNW 14.6 mph23.5 kmh 29.47 in998.0 mb 0.05 in1.3 mm 0.00 in0.0 mm 0.13 in3.3 mm
12:55 PM 44.0°F6.7°C 38.2°F3.4°C 80% 13.7 mph NW22.0 kmh NW 17.0 mph27.4 kmh 29.47 in998.0 mb 0.05 in1.3 mm 0.00 in0.0 mm 0.13 in3.3 mm
01:00 PM 44.3°F6.8°C 37.9°F3.3°C 78% 14.1 mph WNW22.7 kmh WNW 17.0 mph27.4 kmh 29.47 in998.0 mb 0.05 in1.3 mm 0.00 in0.0 mm 0.13 in3.3 mm
01:05 PM 44.7°F7.1°C 37.6°F3.1°C 76% 13.7 mph W22.0 kmh W 13.7 mph22.0 kmh 29.47 in998.0 mb 0.05 in1.3 mm 0.00 in0.0 mm 0.13 in3.3 mm
01:10 PM 44.9°F7.2°C 37.8°F3.2°C 76% 13.7 mph W22.0 kmh W 13.7 mph22.0 kmh 29.50 in999.0 mb 0.05 in1.3 mm 0.00 in0.0 mm 0.13 in3.3 mm
01:15 PM 45.4°F7.4°C 37.6°F3.1°C 74% 15.8 mph NW25.4 kmh NW 19.0 mph30.6 kmh 29.50 in999.0 mb 0.05 in1.3 mm 0.00 in0.0 mm 0.13 in3.3 mm
01:20 PM 45.6°F7.6°C 37.8°F3.2°C 74% 19.0 mph N30.6 kmh N 19.0 mph30.6 kmh 29.50 in999.0 mb 0.05 in1.3 mm 0.00 in0.0 mm 0.13 in3.3 mm
01:25 PM 45.6°F7.6°C 37.4°F3.0°C 73% 19.0 mph N30.6 kmh N 19.0 mph30.6 kmh 29.50 in999.0 mb 0.05 in1.3 mm 0.00 in0.0 mm 0.13 in3.3 mm
01:30 PM 45.4°F7.4°C 37.3°F2.9°C 73% 19.0 mph N30.6 kmh N 19.0 mph30.6 kmh 29.50 in999.0 mb 0.00 in0.0 mm 0.00 in0.0 mm 0.13 in3.3 mm
01:35 PM 45.8°F7.7°C 36.9°F2.7°C 71% 19.0 mph N30.6 kmh N 19.0 mph30.6 kmh 29.50 in999.0 mb 0.00 in0.0 mm 0.00 in0.0 mm 0.13 in3.3 mm
01:40 PM 46.1°F7.8°C 36.1°F2.3°C 68% 19.0 mph N30.6 kmh N 19.0 mph30.6 kmh 29.50 in999.0 mb 0.00 in0.0 mm 0.00 in0.0 mm 0.13 in3.3 mm
01:45 PM 46.3°F7.9°C 35.9°F2.2°C 67% 19.0 mph N30.6 kmh N 19.0 mph30.6 kmh 29.50 in999.0 mb 0.00 in0.0 mm 0.00 in0.0 mm 0.13 in3.3 mm
01:50 PM 46.7°F8.2°C 35.9°F2.2°C 66% 11.3 mph N18.2 kmh N 11.3 mph18.2 kmh 29.50 in999.0 mb 0.00 in0.0 mm 0.00 in0.0 mm 0.13 in3.3 mm
01:55 PM 46.8°F8.2°C 35.3°F1.8°C 64% 11.3 mph N18.2 kmh N 11.3 mph18.2 kmh 29.53 in1000.0 mb 0.00 in0.0 mm 0.00 in0.0 mm 0.13 in3.3 mm
02:00 PM 46.7°F8.2°C 35.5°F1.9°C 65% 11.3 mph N18.2 kmh N 11.3 mph18.2 kmh 29.53 in1000.0 mb 0.00 in0.0 mm 0.00 in0.0 mm 0.13 in3.3 mm
02:05 PM 46.3°F7.9°C 34.8°F1.6°C 64% 11.3 mph N18.2 kmh N 11.3 mph18.2 kmh 29.53 in1000.0 mb 0.00 in0.0 mm 0.00 in0.0 mm 0.13 in3.3 mm
02:10 PM 46.5°F8.1°C 34.6°F1.4°C 63% 14.1 mph NNW22.7 kmh NNW 17.0 mph27.4 kmh 29.53 in1000.0 mb 0.00 in0.0 mm 0.00 in0.0 mm 0.13 in3.3 mm
02:15 PM 46.7°F8.2°C 34.3°F1.3°C 62% 17.0 mph NW27.4 kmh NW 17.0 mph27.4 kmh 29.53 in1000.0 mb 0.00 in0.0 mm 0.00 in0.0 mm 0.13 in3.3 mm
02:20 PM 46.3°F7.9°C 34.0°F1.1°C 62% 17.0 mph NW27.4 kmh NW 17.0 mph27.4 kmh 29.53 in1000.0 mb 0.00 in0.0 mm 0.00 in0.0 mm 0.13 in3.3 mm
02:25 PM 45.8°F7.7°C 33.5°F0.8°C 62% 17.0 mph NW27.4 kmh NW 17.0 mph27.4 kmh 29.53 in1000.0 mb 0.00 in0.0 mm 0.00 in0.0 mm 0.13 in3.3 mm
02:30 PM 45.4°F7.4°C 32.7°F0.4°C 61% 16.1 mph N25.9 kmh N 16.1 mph25.9 kmh 29.53 in1000.0 mb 0.00 in0.0 mm 0.00 in0.0 mm 0.13 in3.3 mm
02:35 PM 44.9°F7.2°C 32.6°F0.3°C 62% 13.2 mph N21.2 kmh N 16.1 mph25.9 kmh 29.53 in1000.0 mb 0.00 in0.0 mm 0.00 in0.0 mm 0.13 in3.3 mm
02:40 PM 44.7°F7.1°C 32.5°F0.3°C 62% 13.1 mph NNW21.1 kmh NNW 20.5 mph33.0 kmh 29.56 in1001.0 mb 0.00 in0.0 mm 0.00 in0.0 mm 0.13 in3.3 mm
02:45 PM 45.0°F7.2°C 32.8°F0.4°C 62% 12.9 mph NNW20.8 kmh NNW 20.5 mph33.0 kmh 29.56 in1001.0 mb 0.00 in0.0 mm 0.00 in0.0 mm 0.13 in3.3 mm
02:50 PM 45.0°F7.2°C 32.8°F0.4°C 62% 11.6 mph NW18.7 kmh NW 15.8 mph25.4 kmh 29.56 in1001.0 mb 0.00 in0.0 mm 0.00 in0.0 mm 0.13 in3.3 mm
02:55 PM 45.0°F7.2°C 32.4°F0.2°C 61% 10.4 mph NNW16.7 kmh NNW 13.4 mph21.6 kmh 29.56 in1001.0 mb 0.00 in0.0 mm 0.00 in0.0 mm 0.13 in3.3 mm
03:00 PM 44.7°F7.1°C 32.1°F0.1°C 61% 11.1 mph NW17.9 kmh NW 14.9 mph24.0 kmh 29.56 in1001.0 mb 0.00 in0.0 mm 0.00 in0.0 mm 0.13 in3.3 mm
03:05 PM 44.5°F6.9°C 31.9°F-0.1°C 61% 11.3 mph NW18.2 kmh NW 14.9 mph24.0 kmh 29.56 in1001.0 mb 0.00 in0.0 mm 0.00 in0.0 mm 0.13 in3.3 mm
03:10 PM 44.5°F6.9°C 31.9°F-0.1°C 61% 10.3 mph NNW16.6 kmh NNW 14.3 mph23.0 kmh 29.56 in1001.0 mb 0.00 in0.0 mm 0.00 in0.0 mm 0.13 in3.3 mm
03:15 PM 44.3°F6.8°C 31.7°F-0.2°C 61% 9.4 mph N15.1 kmh N 14.3 mph23.0 kmh 29.56 in1001.0 mb 0.00 in0.0 mm 0.00 in0.0 mm 0.13 in3.3 mm
03:20 PM 44.3°F6.8°C 31.7°F-0.2°C 61% 8.9 mph N14.3 kmh N 13.1 mph21.1 kmh 29.56 in1001.0 mb 0.00 in0.0 mm 0.00 in0.0 mm 0.13 in3.3 mm
03:25 PM 44.3°F6.8°C 31.7°F-0.2°C 61% 10.1 mph NNW16.3 kmh NNW 15.2 mph24.5 kmh 29.56 in1001.0 mb 0.00 in0.0 mm 0.00 in0.0 mm 0.13 in3.3 mm
03:30 PM 44.2°F6.8°C 31.5°F-0.3°C 61% 9.5 mph NW15.3 kmh NW 15.2 mph24.5 kmh 29.56 in1001.0 mb 0.00 in0.0 mm 0.00 in0.0 mm 0.13 in3.3 mm
03:35 PM 44.2°F6.8°C 31.5°F-0.3°C 61% 8.5 mph NW13.7 kmh NW 11.9 mph19.2 kmh 29.56 in1001.0 mb 0.00 in0.0 mm 0.00 in0.0 mm 0.13 in3.3 mm
03:40 PM 43.6°F6.4°C 30.6°F-0.8°C 60% 9.7 mph NNW15.6 kmh NNW 12.2 mph19.6 kmh 29.59 in1002.0 mb 0.00 in0.0 mm 0.00 in0.0 mm 0.13 in3.3 mm
03:45 PM 43.4°F6.3°C 30.0°F-1.1°C 59% 11.7 mph N18.8 kmh N 14.3 mph23.0 kmh 29.59 in1002.0 mb 0.00 in0.0 mm 0.00 in0.0 mm 0.13 in3.3 mm
03:50 PM 43.1°F6.2°C 29.7°F-1.3°C 59% 10.8 mph N17.4 kmh N 14.6 mph23.5 kmh 29.59 in1002.0 mb 0.00 in0.0 mm 0.00 in0.0 mm 0.13 in3.3 mm
03:55 PM 42.9°F6.1°C 29.9°F-1.2°C 60% 9.5 mph N15.3 kmh N 14.6 mph23.5 kmh 29.59 in1002.0 mb 0.00 in0.0 mm 0.00 in0.0 mm 0.13 in3.3 mm
04:00 PM 42.7°F5.9°C 29.4°F-1.4°C 59% 10.1 mph NNW16.3 kmh NNW 14.3 mph23.0 kmh 29.59 in1002.0 mb 0.00 in0.0 mm 0.00 in0.0 mm 0.13 in3.3 mm
04:05 PM 42.7°F5.9°C 29.4°F-1.4°C 59% 10.3 mph NW16.6 kmh NW 14.3 mph23.0 kmh 29.59 in1002.0 mb 0.00 in0.0 mm 0.00 in0.0 mm 0.13 in3.3 mm
04:10 PM 42.5°F5.8°C 29.2°F-1.6°C 59% 8.9 mph NW14.3 kmh NW 14.0 mph22.5 kmh 29.59 in1002.0 mb 0.00 in0.0 mm 0.00 in0.0 mm 0.13 in3.3 mm
04:15 PM 42.5°F5.8°C 29.2°F-1.6°C 59% 9.6 mph NW15.4 kmh NW 14.3 mph23.0 kmh 29.59 in1002.0 mb 0.00 in0.0 mm 0.00 in0.0 mm 0.13 in3.3 mm
04:20 PM 42.3°F5.7°C 29.0°F-1.7°C 59% 11.5 mph NW18.5 kmh NW 16.4 mph26.4 kmh 29.59 in1002.0 mb 0.00 in0.0 mm 0.00 in0.0 mm 0.13 in3.3 mm
04:25 PM 42.3°F5.7°C 29.0°F-1.7°C 59% 10.2 mph NW16.4 kmh NW 16.4 mph26.4 kmh 29.59 in1002.0 mb 0.00 in0.0 mm 0.00 in0.0 mm 0.13 in3.3 mm
04:30 PM 42.2°F5.7°C 28.9°F-1.7°C 59% 7.7 mph NNW12.4 kmh NNW 9.5 mph15.3 kmh 29.59 in1002.0 mb 0.00 in0.0 mm 0.00 in0.0 mm 0.13 in3.3 mm
04:35 PM 42.0°F5.6°C 28.7°F-1.8°C 59% 8.5 mph N13.7 kmh N 10.7 mph17.2 kmh 29.59 in1002.0 mb 0.00 in0.0 mm 0.00 in0.0 mm 0.13 in3.3 mm
04:40 PM 41.8°F5.4°C 28.5°F-1.9°C 59% 10.7 mph N17.2 kmh N 10.7 mph17.2 kmh 29.62 in1003.0 mb 0.00 in0.0 mm 0.00 in0.0 mm 0.13 in3.3 mm
04:45 PM 41.6°F5.3°C 28.3°F-2.1°C 59% 10.7 mph N17.2 kmh N 10.7 mph17.2 kmh 29.62 in1003.0 mb 0.00 in0.0 mm 0.00 in0.0 mm 0.13 in3.3 mm
04:50 PM 41.5°F5.3°C 28.2°F-2.1°C 59% 10.7 mph N17.2 kmh N 10.7 mph17.2 kmh 29.62 in1003.0 mb 0.00 in0.0 mm 0.00 in0.0 mm 0.13 in3.3 mm
04:55 PM 41.3°F5.2°C 27.6°F-2.4°C 58% 10.7 mph N17.2 kmh N 10.7 mph17.2 kmh 29.62 in1003.0 mb 0.00 in0.0 mm 0.00 in0.0 mm 0.13 in3.3 mm
05:00 PM 40.9°F4.9°C 27.3°F-2.6°C 58% 10.7 mph N17.2 kmh N 10.7 mph17.2 kmh 29.62 in1003.0 mb 0.00 in0.0 mm 0.00 in0.0 mm 0.13 in3.3 mm
05:05 PM 40.9°F4.9°C 27.3°F-2.6°C 58% 5.7 mph NW9.2 kmh NW 7.1 mph11.4 kmh 29.62 in1003.0 mb 0.00 in0.0 mm 0.00 in0.0 mm 0.13 in3.3 mm
05:10 PM 40.5°F4.7°C 27.3°F-2.6°C 59% 7.3 mph NNW11.7 kmh NNW 14.3 mph23.0 kmh 29.65 in1004.1 mb 0.00 in0.0 mm 0.00 in0.0 mm 0.13 in3.3 mm
05:15 PM 40.4°F4.7°C 27.2°F-2.7°C 59% 6.9 mph NW11.1 kmh NW 14.3 mph23.0 kmh 29.65 in1004.1 mb 0.00 in0.0 mm 0.00 in0.0 mm 0.13 in3.3 mm
05:20 PM 40.2°F4.6°C 27.0°F-2.8°C 59% 8.1 mph NW13.0 kmh NW 14.3 mph23.0 kmh 29.65 in1004.1 mb 0.00 in0.0 mm 0.00 in0.0 mm 0.13 in3.3 mm
05:25 PM 40.0°F4.4°C 26.8°F-2.9°C 59% 7.4 mph NW11.9 kmh NW 10.7 mph17.2 kmh 29.65 in1004.1 mb 0.00 in0.0 mm 0.00 in0.0 mm 0.13 in3.3 mm
05:30 PM 39.8°F4.3°C 26.7°F-2.9°C 59% 6.8 mph NW10.9 kmh NW 11.3 mph18.2 kmh 29.65 in1004.1 mb 0.00 in0.0 mm 0.00 in0.0 mm 0.13 in3.3 mm
05:35 PM 39.7°F4.3°C 26.5°F-3.1°C 59% 9.3 mph NNW15.0 kmh NNW 11.3 mph18.2 kmh 29.65 in1004.1 mb 0.00 in0.0 mm 0.00 in0.0 mm 0.13 in3.3 mm
05:40 PM 39.5°F4.2°C 26.3°F-3.2°C 59% 8.3 mph NW13.4 kmh NW 11.3 mph18.2 kmh 29.65 in1004.1 mb 0.00 in0.0 mm 0.00 in0.0 mm 0.13 in3.3 mm
05:45 PM 39.3°F4.1°C 26.1°F-3.3°C 59% 7.9 mph NW12.7 kmh NW 11.3 mph18.2 kmh 29.65 in1004.1 mb 0.00 in0.0 mm 0.00 in0.0 mm 0.13 in3.3 mm
05:50 PM 39.1°F3.9°C 26.4°F-3.1°C 60% 7.5 mph NNW12.1 kmh NNW 10.4 mph16.7 kmh 29.65 in1004.1 mb 0.00 in0.0 mm 0.00 in0.0 mm 0.13 in3.3 mm
05:55 PM 38.9°F3.8°C 26.2°F-3.2°C 60% 6.9 mph NNW11.1 kmh NNW 8.3 mph13.4 kmh 29.68 in1005.1 mb 0.00 in0.0 mm 0.00 in0.0 mm 0.13 in3.3 mm
06:00 PM 38.8°F3.8°C 26.0°F-3.3°C 60% 6.9 mph NW11.1 kmh NW 8.3 mph13.4 kmh 29.68 in1005.1 mb 0.00 in0.0 mm 0.00 in0.0 mm 0.13 in3.3 mm
06:05 PM 38.6°F3.7°C 25.9°F-3.4°C 60% 7.4 mph NW11.9 kmh NW 10.7 mph17.2 kmh 29.68 in1005.1 mb 0.00 in0.0 mm 0.00 in0.0 mm 0.13 in3.3 mm
06:10 PM 38.6°F3.7°C 25.9°F-3.4°C 60% 7.9 mph NW12.7 kmh NW 10.7 mph17.2 kmh 29.68 in1005.1 mb 0.00 in0.0 mm 0.00 in0.0 mm 0.13 in3.3 mm
06:15 PM 38.4°F3.6°C 26.1°F-3.3°C 61% 7.3 mph NW11.7 kmh NW 10.7 mph17.2 kmh 29.68 in1005.1 mb 0.00 in0.0 mm 0.00 in0.0 mm 0.13 in3.3 mm
06:20 PM 38.4°F3.6°C 26.1°F-3.3°C 61% 8.9 mph NW14.3 kmh NW 13.4 mph21.6 kmh 29.68 in1005.1 mb 0.00 in0.0 mm 0.00 in0.0 mm 0.13 in3.3 mm
06:25 PM 38.4°F3.6°C 26.1°F-3.3°C 61% 9.0 mph NW14.5 kmh NW 13.4 mph21.6 kmh 29.68 in1005.1 mb 0.00 in0.0 mm 0.00 in0.0 mm 0.13 in3.3 mm
06:30 PM 38.2°F3.4°C 25.9°F-3.4°C 61% 7.1 mph NW11.4 kmh NW 13.4 mph21.6 kmh 29.68 in1005.1 mb 0.00 in0.0 mm 0.00 in0.0 mm 0.13 in3.3 mm
06:35 PM 38.2°F3.4°C 25.9°F-3.4°C 61% 5.1 mph NW8.2 kmh NW 10.1 mph16.3 kmh 29.68 in1005.1 mb 0.00 in0.0 mm 0.00 in0.0 mm 0.13 in3.3 mm
06:40 PM 37.8°F3.2°C 25.6°F-3.6°C 61% 3.2 mph NW5.1 kmh NW 5.1 mph8.2 kmh 29.71 in1006.1 mb 0.00 in0.0 mm 0.00 in0.0 mm 0.13 in3.3 mm
06:45 PM 37.7°F3.2°C 25.4°F-3.7°C 61% 3.6 mph NW5.8 kmh NW 7.7 mph12.4 kmh 29.71 in1006.1 mb 0.00 in0.0 mm 0.00 in0.0 mm 0.13 in3.3 mm
06:50 PM 37.5°F3.1°C 25.6°F-3.6°C 62% 5.2 mph NW8.4 kmh NW 7.7 mph12.4 kmh 29.71 in1006.1 mb 0.00 in0.0 mm 0.00 in0.0 mm 0.13 in3.3 mm
06:55 PM 37.3°F2.9°C 25.5°F-3.6°C 62% 4.6 mph NW7.4 kmh NW 6.2 mph10.0 kmh 29.71 in1006.1 mb 0.00 in0.0 mm 0.00 in0.0 mm 0.13 in3.3 mm
07:00 PM 37.0°F2.8°C 25.1°F-3.8°C 62% 4.0 mph NW6.4 kmh NW 5.7 mph9.2 kmh 29.71 in1006.1 mb 0.00 in0.0 mm 0.00 in0.0 mm 0.13 in3.3 mm
07:05 PM 36.8°F2.7°C 25.0°F-3.9°C 62% 3.4 mph NW5.5 kmh NW 4.2 mph6.8 kmh 29.71 in1006.1 mb 0.00 in0.0 mm 0.00 in0.0 mm 0.13 in3.3 mm
07:10 PM 36.6°F2.6°C 24.8°F-4.0°C 62% 3.9 mph NW6.3 kmh NW 5.7 mph9.2 kmh 29.71 in1006.1 mb 0.00 in0.0 mm 0.00 in0.0 mm 0.13 in3.3 mm
07:15 PM 36.6°F2.6°C 25.2°F-3.8°C 63% 6.0 mph NW9.7 kmh NW 10.1 mph16.3 kmh 29.71 in1006.1 mb 0.00 in0.0 mm 0.00 in0.0 mm 0.13 in3.3 mm
07:20 PM 36.4°F2.4°C 25.0°F-3.9°C 63% 6.2 mph WNW10.0 kmh WNW 10.1 mph16.3 kmh 29.71 in1006.1 mb 0.00 in0.0 mm 0.00 in0.0 mm 0.13 in3.3 mm
07:25 PM 36.2°F2.3°C 24.8°F-4.0°C 63% 4.7 mph WNW7.6 kmh WNW 7.7 mph12.4 kmh 29.71 in1006.1 mb 0.00 in0.0 mm 0.00 in0.0 mm 0.13 in3.3 mm
07:30 PM 36.2°F2.3°C 24.8°F-4.0°C 63% 4.3 mph WNW6.9 kmh WNW 7.1 mph11.4 kmh 29.71 in1006.1 mb 0.00 in0.0 mm 0.00 in0.0 mm 0.13 in3.3 mm
07:35 PM 36.0°F2.2°C 25.0°F-3.9°C 64% 4.7 mph WNW7.6 kmh WNW 7.7 mph12.4 kmh 29.71 in1006.1 mb 0.00 in0.0 mm 0.00 in0.0 mm 0.13 in3.3 mm
07:40 PM 36.0°F2.2°C 25.0°F-3.9°C 64% 5.3 mph W8.5 kmh W 8.0 mph12.9 kmh 29.71 in1006.1 mb 0.00 in0.0 mm 0.00 in0.0 mm 0.13 in3.3 mm
07:45 PM 35.9°F2.2°C 24.9°F-3.9°C 64% 4.6 mph WNW7.4 kmh WNW 8.0 mph12.9 kmh 29.71 in1006.1 mb 0.00 in0.0 mm 0.00 in0.0 mm 0.13 in3.3 mm
07:50 PM 35.7°F2.1°C 24.7°F-4.1°C 64% 3.3 mph WNW5.3 kmh WNW 4.5 mph7.2 kmh 29.71 in1006.1 mb 0.00 in0.0 mm 0.00 in0.0 mm 0.13 in3.3 mm
07:55 PM 35.5°F1.9°C 24.5°F-4.2°C 64% 2.9 mph WNW4.7 kmh WNW 3.9 mph6.3 kmh 29.74 in1007.1 mb 0.00 in0.0 mm 0.00 in0.0 mm 0.13 in3.3 mm
08:00 PM 35.3°F1.8°C 24.4°F-4.2°C 64% 3.6 mph WNW5.8 kmh WNW 5.1 mph8.2 kmh 29.74 in1007.1 mb 0.00 in0.0 mm 0.00 in0.0 mm 0.13 in3.3 mm
08:05 PM 35.2°F1.8°C 24.2°F-4.3°C 64% 4.0 mph WNW6.4 kmh WNW 5.1 mph8.2 kmh 29.74 in1007.1 mb 0.00 in0.0 mm 0.00 in0.0 mm 0.13 in3.3 mm
08:10 PM 35.2°F1.8°C 24.6°F-4.1°C 65% 3.9 mph WNW6.3 kmh WNW 5.4 mph8.7 kmh 29.71 in1006.1 mb 0.00 in0.0 mm 0.00 in0.0 mm 0.13 in3.3 mm
08:15 PM 35.0°F1.7°C 24.4°F-4.2°C 65% 4.1 mph NW6.6 kmh NW 5.4 mph8.7 kmh 29.71 in1006.1 mb 0.00 in0.0 mm 0.00 in0.0 mm 0.13 in3.3 mm
08:20 PM 35.0°F1.7°C 24.8°F-4.0°C 66% 4.2 mph WNW6.8 kmh WNW 5.1 mph8.2 kmh 29.71 in1006.1 mb 0.00 in0.0 mm 0.00 in0.0 mm 0.13 in3.3 mm
08:25 PM 35.0°F1.7°C 24.8°F-4.0°C 66% 3.8 mph NW6.1 kmh NW 5.1 mph8.2 kmh 29.74 in1007.1 mb 0.00 in0.0 mm 0.00 in0.0 mm 0.13 in3.3 mm
08:30 PM 34.8°F1.6°C 24.6°F-4.1°C 66% 4.8 mph NW7.7 kmh NW 8.6 mph13.8 kmh 29.74 in1007.1 mb 0.00 in0.0 mm 0.00 in0.0 mm 0.13 in3.3 mm
08:35 PM 34.8°F1.6°C 24.9°F-3.9°C 67% 6.1 mph NW9.8 kmh NW 8.6 mph13.8 kmh 29.74 in1007.1 mb 0.00 in0.0 mm 0.00 in0.0 mm 0.13 in3.3 mm
08:40 PM 35.0°F1.7°C 25.1°F-3.8°C 67% 6.4 mph NW10.3 kmh NW 8.3 mph13.4 kmh 29.74 in1007.1 mb 0.00 in0.0 mm 0.00 in0.0 mm 0.13 in3.3 mm
08:45 PM 35.0°F1.7°C 25.5°F-3.6°C 68% 6.4 mph NW10.3 kmh NW 8.3 mph13.4 kmh 29.74 in1007.1 mb 0.00 in0.0 mm 0.00 in0.0 mm 0.13 in3.3 mm
08:50 PM 35.0°F1.7°C 25.5°F-3.6°C 68% 5.8 mph NW9.3 kmh NW 8.0 mph12.9 kmh 29.74 in1007.1 mb 0.00 in0.0 mm 0.00 in0.0 mm 0.13 in3.3 mm
08:55 PM 35.0°F1.7°C 25.5°F-3.6°C 68% 4.7 mph NW7.6 kmh NW 8.0 mph12.9 kmh 29.74 in1007.1 mb 0.00 in0.0 mm 0.00 in0.0 mm 0.13 in3.3 mm
09:00 PM 34.8°F1.6°C 25.3°F-3.7°C 68% 4.5 mph WNW7.2 kmh WNW 7.1 mph11.4 kmh 29.74 in1007.1 mb 0.00 in0.0 mm 0.00 in0.0 mm 0.13 in3.3 mm
09:05 PM 34.8°F1.6°C 25.3°F-3.7°C 68% 5.2 mph WNW8.4 kmh WNW 7.1 mph11.4 kmh 29.74 in1007.1 mb 0.00 in0.0 mm 0.00 in0.0 mm 0.13 in3.3 mm
09:10 PM 35.0°F1.7°C 25.5°F-3.6°C 68% 6.2 mph NW10.0 kmh NW 7.4 mph11.9 kmh 29.74 in1007.1 mb 0.00 in0.0 mm 0.00 in0.0 mm 0.13 in3.3 mm
09:15 PM 35.0°F1.7°C 25.5°F-3.6°C 68% 5.6 mph NW9.0 kmh NW 7.4 mph11.9 kmh 29.74 in1007.1 mb 0.00 in0.0 mm 0.00 in0.0 mm 0.13 in3.3 mm
09:20 PM 35.0°F1.7°C 25.5°F-3.6°C 68% 5.2 mph WNW8.4 kmh WNW 7.1 mph11.4 kmh 29.74 in1007.1 mb 0.00 in0.0 mm 0.00 in0.0 mm 0.13 in3.3 mm
09:25 PM 35.0°F1.7°C 25.5°F-3.6°C 68% 5.2 mph WNW8.4 kmh WNW 7.1 mph11.4 kmh 29.74 in1007.1 mb 0.00 in0.0 mm 0.00 in0.0 mm 0.13 in3.3 mm
09:30 PM 35.0°F1.7°C 25.8°F-3.4°C 69% 5.3 mph WNW8.5 kmh WNW 8.0 mph12.9 kmh 29.74 in1007.1 mb 0.00 in0.0 mm 0.00 in0.0 mm 0.13 in3.3 mm
09:35 PM 35.0°F1.7°C 25.8°F-3.4°C 69% 6.0 mph NW9.7 kmh NW 8.6 mph13.8 kmh 29.74 in1007.1 mb 0.00 in0.0 mm 0.00 in0.0 mm 0.13 in3.3 mm
09:40 PM 34.8°F1.6°C 25.7°F-3.5°C 69% 5.2 mph NW8.4 kmh NW 8.6 mph13.8 kmh 29.74 in1007.1 mb 0.00 in0.0 mm 0.00 in0.0 mm 0.13 in3.3 mm
09:45 PM 34.6°F1.4°C 25.5°F-3.6°C 69% 3.6 mph WNW5.8 kmh WNW 5.4 mph8.7 kmh 29.74 in1007.1 mb 0.00 in0.0 mm 0.00 in0.0 mm 0.13 in3.3 mm
09:50 PM 34.6°F1.4°C 25.5°F-3.6°C 69% 4.3 mph W6.9 kmh W 6.5 mph10.5 kmh 29.74 in1007.1 mb 0.00 in0.0 mm 0.00 in0.0 mm 0.13 in3.3 mm
09:55 PM 34.4°F1.3°C 25.3°F-3.7°C 69% 4.6 mph W7.4 kmh W 6.5 mph10.5 kmh 29.74 in1007.1 mb 0.00 in0.0 mm 0.00 in0.0 mm 0.13 in3.3 mm
10:00 PM 34.4°F1.3°C 25.3°F-3.7°C 69% 3.5 mph WNW5.6 kmh WNW 5.7 mph9.2 kmh 29.74 in1007.1 mb 0.00 in0.0 mm 0.00 in0.0 mm 0.13 in3.3 mm
10:05 PM 34.3°F1.3°C 25.5°F-3.6°C 70% 1.6 mph WNW2.6 kmh WNW 5.7 mph9.2 kmh 29.74 in1007.1 mb 0.00 in0.0 mm 0.00 in0.0 mm 0.13 in3.3 mm
10:10 PM 33.9°F1.1°C 24.8°F-4.0°C 69% 0.2 mph SW0.3 kmh SW 1.2 mph1.9 kmh 29.74 in1007.1 mb 0.00 in0.0 mm 0.00 in0.0 mm 0.13 in3.3 mm
10:15 PM 33.3°F0.7°C 24.3°F-4.3°C 69% Calm Calm -- 29.74 in1007.1 mb 0.00 in0.0 mm 0.00 in0.0 mm 0.13 in3.3 mm
10:20 PM 32.8°F0.4°C 23.4°F-4.8°C 68% 0.3 mph W0.5 kmh W 2.1 mph3.4 kmh 29.74 in1007.1 mb 0.00 in0.0 mm 0.00 in0.0 mm 0.13 in3.3 mm
10:25 PM 32.5°F0.3°C 23.4°F-4.8°C 69% 1.2 mph W1.9 kmh W 3.0 mph4.8 kmh 29.74 in1007.1 mb 0.00 in0.0 mm 0.00 in0.0 mm 0.13 in3.3 mm
10:30 PM 32.1°F0.1°C 23.1°F-4.9°C 69% 1.7 mph WNW2.7 kmh WNW 3.0 mph4.8 kmh 29.74 in1007.1 mb 0.00 in0.0 mm 0.00 in0.0 mm 0.13 in3.3 mm
10:35 PM 31.9°F-0.1°C 23.2°F-4.9°C 70% 1.3 mph NW2.1 kmh NW 1.8 mph2.9 kmh 29.74 in1007.1 mb 0.00 in0.0 mm 0.00 in0.0 mm 0.13 in3.3 mm
10:40 PM 31.5°F-0.3°C 22.9°F-5.1°C 70% 0.4 mph NW0.6 kmh NW 1.8 mph2.9 kmh 29.74 in1007.1 mb 0.00 in0.0 mm 0.00 in0.0 mm 0.13 in3.3 mm
10:45 PM 31.4°F-0.3°C 22.7°F-5.2°C 70% Calm Calm -- 29.74 in1007.1 mb 0.00 in0.0 mm 0.00 in0.0 mm 0.13 in3.3 mm
10:50 PM 31.0°F-0.6°C 22.7°F-5.2°C 71% 0.4 mph SE0.6 kmh SE 1.8 mph2.9 kmh 29.74 in1007.1 mb 0.00 in0.0 mm 0.00 in0.0 mm 0.13 in3.3 mm
10:55 PM 30.8°F-0.7°C 22.5°F-5.3°C 71% 0.9 mph SE1.4 kmh SE 2.7 mph4.3 kmh 29.71 in1006.1 mb 0.00 in0.0 mm 0.00 in0.0 mm 0.13 in3.3 mm
11:00 PM 30.5°F-0.8°C 22.5°F-5.3°C 72% 0.6 mph SE1.0 kmh SE 2.7 mph4.3 kmh 29.71 in1006.1 mb 0.00 in0.0 mm 0.00 in0.0 mm 0.13 in3.3 mm
11:05 PM 30.1°F-1.1°C 22.2°F-5.4°C 72% 0.2 mph SE0.3 kmh SE 1.2 mph1.9 kmh 29.71 in1006.1 mb 0.00 in0.0 mm 0.00 in0.0 mm 0.13 in3.3 mm
11:10 PM 29.8°F-1.2°C 21.8°F-5.7°C 72% Calm Calm -- 29.71 in1006.1 mb 0.00 in0.0 mm 0.00 in0.0 mm 0.13 in3.3 mm
11:15 PM 29.4°F-1.4°C 21.5°F-5.8°C 72% 0.1 mph SE0.2 kmh SE 1.2 mph1.9 kmh 29.71 in1006.1 mb 0.00 in0.0 mm 0.00 in0.0 mm 0.13 in3.3 mm
11:20 PM 29.0°F-1.7°C 21.1°F-6.1°C 72% 0.1 mph SE0.2 kmh SE 1.2 mph1.9 kmh 29.71 in1006.1 mb 0.00 in0.0 mm 0.00 in0.0 mm 0.13 in3.3 mm
11:25 PM 28.9°F-1.7°C 21.3°F-5.9°C 73% Calm Calm -- 29.71 in1006.1 mb 0.00 in0.0 mm 0.00 in0.0 mm 0.13 in3.3 mm
11:30 PM 28.5°F-1.9°C 20.9°F-6.2°C 73% Calm Calm -- 29.71 in1006.1 mb 0.00 in0.0 mm 0.00 in0.0 mm 0.13 in3.3 mm
11:35 PM 28.3°F-2.1°C 20.8°F-6.2°C 73% Calm Calm -- 29.71 in1006.1 mb 0.00 in0.0 mm 0.00 in0.0 mm 0.13 in3.3 mm
11:40 PM 28.1°F-2.2°C 20.6°F-6.3°C 73% Calm Calm -- 29.71 in1006.1 mb 0.00 in0.0 mm 0.00 in0.0 mm 0.13 in3.3 mm
11:45 PM 28.0°F-2.2°C 20.4°F-6.4°C 73% 0.3 mph SE0.5 kmh SE 1.2 mph1.9 kmh 29.71 in1006.1 mb 0.00 in0.0 mm 0.00 in0.0 mm 0.13 in3.3 mm
11:50 PM 27.8°F-2.3°C 20.6°F-6.3°C 74% 0.3 mph SE0.5 kmh SE 1.2 mph1.9 kmh 29.71 in1006.1 mb 0.00 in0.0 mm 0.00 in0.0 mm 0.13 in3.3 mm
11:55 PM 27.6°F-2.4°C 20.4°F-6.4°C 74% Calm Calm -- 29.71 in1006.1 mb 0.00 in0.0 mm 0.00 in0.0 mm 0.13 in3.3 mm